Station: Macquarie Island  

  Atmospheric Gas Attenuation - ITU Rec 676-11   ----------------- dB/100km -----------------
Date Time Temp RH % AH g/m3 Dew Point Wind Direction Speed kph Gust kph Barometer mB Rainfall Since 9am 24GHz 47GHz 76GHz 122GHz 134GHz 241GHz
09/05 03:30 3.4 74 4.52 -0.8 39 85 973.9 7.2 11.2 20.7 26.6 69.6 53.3 179.5
09/05 03:20 3.5 76 4.68 -0.3 28 37 973.2 7.2 11.6 20.9 27.1 71.0 55.2 186.2
09/05 03:10 4.1 71 4.55 -0.7 48 56 973.1 7.2 11.2 20.6 26.4 69.2 53.2 179.1
09/05 03:00 3.7 76 4.74 -0.1 44 76 972.5 7.2 11.7 20.9 27.2 71.4 55.8 188.3
09/05 02:50 3.6 80 4.96 0.5 35 50 971.9 7.2 12.2 21.3 28.1 73.7 58.6 198.1
09/05 02:40 4.3 73 4.74 -0.1 33 41 971.8 7.2 11.7 20.8 27.0 70.8 55.3 186.7
09/05 02:30 4.4 72 4.71 -0.2 54 93 971.2 7.2 11.6 20.7 26.8 70.4 54.8 185.1
09/05 02:20 4.6 73 4.83 0.2 61 78 970.9 7.2 11.8 20.8 27.2 71.4 56.2 189.8
09/05 02:10 4.5 72 4.74 -0.1 57 87 970.5 7.2 11.6 20.7 26.9 70.5 55.1 186.0
09/05 02:00 4.5 74 4.87 0.3 44 76 969.9 7.2 11.9 20.9 27.4 71.8 56.7 191.6
09/05 01:50 4.3 76 4.93 0.5 57 85 969.4 7.2 12.1 21.0 27.6 72.5 57.5 194.6
09/05 01:40 4.5 77 5.07 0.8 67 109 969 7.2 12.4 21.1 28.1 73.7 59.1 200.2
09/05 01:30 4.2 77 4.97 0.5 76 106 968.8 7.2 12.2 21.0 27.8 73.0 58.1 196.5
09/05 01:20 4.2 81 5.22 1.2 69 80 968.9 7.2 12.7 21.4 28.8 75.5 61.2 207.6
09/05 01:10 4.2 80 5.16 1.1 80 96 968.6 7.2 12.6 21.3 28.5 74.9 60.5 204.9
09/05 01:00 4 81 5.15 1 74 100 968.5 7.2 12.6 21.4 28.5 75.0 60.5 205.0
09/05 00:50 3.5 85 5.23 1.2 76 98 968.6 7 12.7 21.6 29.0 76.3 61.9 209.9
09/05 00:40 4.6 74 4.9 0.4 74 85 968.3 7 12.0 20.8 27.4 71.8 56.9 192.4
09/05 00:30 4.4 74 4.84 0.2 78 102 968.3 7 11.9 20.8 27.2 71.4 56.3 190.2
09/05 00:20 4.5 73 4.8 0.1 80 95 968.3 7 11.8 20.7 27.0 70.9 55.7 188.3
09/05 00:10 4.3 73 4.74 -0.1 74 85 968.2 7 11.7 20.7 26.9 70.5 55.1 186.1
09/05 00:00 4.2 74 4.77 0 80 100 968.2 7 11.7 20.7 27.0 70.9 55.6 187.6
08/05 23:50 4 76 4.84 0.2 83 95 968.6 7 11.9 20.9 27.4 71.8 56.6 191.3
08/05 23:40 4.1 82 5.25 1.3 76 85 968.2 7 12.8 21.5 28.9 75.9 61.7 209.1
08/05 23:30 4.1 77 4.93 0.4 72 91 968.2 6.8 12.1 21.0 27.7 72.6 57.6 194.9
08/05 23:20 4.2 75 4.84 0.2 61 80 968.5 6.8 11.9 20.8 27.3 71.6 56.4 190.8
08/05 23:10 3.6 82 5.08 0.8 70 85 968.6 6.8 12.4 21.4 28.4 74.6 59.9 202.9
08/05 23:00 3.7 85 5.3 1.4 65 74 968.4 6.8 12.9 21.7 29.2 76.8 62.6 212.5
08/05 22:50 3.7 81 5.05 0.7 76 87 968.8 6.8 12.3 21.3 28.3 74.3 59.5 201.3
08/05 22:40 4.2 81 5.22 1.2 61 72 968.5 6.8 12.7 21.4 28.7 75.5 61.2 207.6
08/05 22:30 3.9 80 5.06 0.8 63 74 968.5 6.8 12.4 21.2 28.2 74.1 59.4 201.2
08/05 22:20 3.6 86 5.33 1.5 76 85 968.6 6.6 13.0 21.7 29.4 77.2 63.1 214.1
08/05 22:10 3.3 87 5.28 1.3 70 83 968.8 6.6 12.9 21.7 29.3 77.0 62.7 212.7
08/05 22:00 3.9 90 5.69 2.4 65 74 968.6 6.6 13.7 22.2 30.7 80.7 67.5 229.6
08/05 21:50 4.4 88 5.75 2.6 69 76 968.2 6.4 13.8 22.2 30.7 80.8 67.8 230.8
08/05 21:40 4.5 88 5.79 2.7 56 65 968.3 6.4 13.9 22.2 30.8 81.1 68.3 232.3
08/05 21:30 4.3 86 5.58 2.2 57 67 968.6 6.4 13.5 22.0 30.1 79.1 65.8 223.5
08/05 21:20 4.6 89 5.89 2.9 56 69 968.5 6.4 14.1 22.4 31.2 82.1 69.5 236.6
08/05 21:10 4.4 90 5.88 2.9 65 80 968.7 6.4 14.1 22.4 31.2 82.2 69.6 236.8
08/05 21:00 5.4 93 6.49 4.4 50 59 968.4 6 15.4 23.1 33.3 87.6 76.6 261.7
08/05 20:50 5.4 94 6.56 4.5 61 74 968.7 6 15.6 23.3 33.5 88.3 77.6 265.0
08/05 20:40 4.9 94 6.35 4 59 67 968.6 5.6 15.1 23.0 32.9 86.6 75.3 256.9
08/05 20:30 4.1 94 6.02 3.2 67 76 969.6 5.4 14.4 22.7 32.0 84.1 71.7 244.4
08/05 20:20 3.8 94 5.9 2.9 67 76 970.1 4.8 14.2 22.7 31.6 83.2 70.5 239.9
08/05 20:10 3.9 94 5.94 3 61 72 971 4.2 14.3 22.7 31.8 83.6 71.0 241.6
08/05 20:00 3.3 94 5.71 2.4 67 76 971.6 3.8 13.8 22.5 31.1 81.8 68.5 232.9
08/05 19:50 3.3 93 5.65 2.3 67 76 972.3 3.2 13.7 22.5 30.9 81.3 67.8 230.3
08/05 19:40 3.3 94 5.71 2.4 59 69 973.1 3 13.8 22.6 31.2 82.0 68.6 233.3
08/05 19:30 3.2 94 5.67 2.3 52 59 973.9 2.8 13.7 22.6 31.1 81.7 68.2 231.9
08/05 19:20 2.7 93 5.42 1.7 61 65 974.6 2.4 13.2 22.3 30.3 79.6 65.4 221.9
08/05 19:10 2.6 92 5.33 1.4 57 61 975.2 2 13.0 22.2 30.0 78.8 64.3 218.2
08/05 19:00 2.7 92 5.37 1.5 48 54 976 1.6 13.1 22.3 30.2 79.2 64.8 219.9
08/05 18:50 2.9 92 5.44 1.7 48 54 976.8 1.4 13.2 22.4 30.4 79.9 65.6 222.7
08/05 18:40 2.5 91 5.24 1.2 50 54 977.6 1.2 12.8 22.2 29.8 78.2 63.4 214.8
08/05 18:30 2.2 90 5.07 0.7 48 54 978.2 1 12.4 22.0 29.3 76.8 61.4 207.9
08/05 18:20 2.2 88 4.96 0.4 46 56 978.9 0.8 12.2 21.9 28.9 75.7 60.0 203.0
08/05 18:10 2.2 88 4.96 0.4 44 52 979.3 0.8 12.2 21.9 28.9 75.7 60.1 203.1
08/05 18:00 2.4 90 5.14 0.9 44 52 979.8 0.8 12.6 22.1 29.5 77.4 62.3 210.9
08/05 17:50 2 90 5.01 0.5 44 52 980.2 0.8 12.3 22.1 29.2 76.5 60.9 206.0
08/05 17:40 2.1 91 5.1 0.8 46 56 980.9 0.6 12.5 22.2 29.5 77.4 62.1 210.0
08/05 17:30 1.7 91 4.96 0.4 52 59 981.2 0.6 12.2 22.1 29.1 76.4 60.6 204.7
08/05 17:20 1.8 92 5.05 0.6 46 50 981.6 0.6 12.4 22.2 29.5 77.3 61.7 208.7
08/05 17:10 1.1 92 4.81 -0.1 44 46 982.2 0.4 11.9 22.0 28.8 75.4 59.1 199.5
08/05 17:00 1 92 4.78 -0.1 44 48 982.6 0.4 11.9 22.0 28.7 75.3 58.8 198.5
08/05 16:50 0.8 91 4.66 -0.5 46 54 983 0.2 11.6 21.9 28.3 74.2 57.4 193.5
08/05 16:40 1.4 89 4.75 -0.2 43 48 983.6 0.2 11.8 21.9 28.5 74.6 58.2 196.3
08/05 16:30 1.3 89 4.72 -0.3 43 46 983.9 0.2 11.7 21.9 28.4 74.4 57.9 195.2
08/05 16:20 1.3 88 4.67 -0.5 43 46 984.2 0 11.6 21.8 28.2 73.9 57.2 193.0
08/05 16:10 1.6 89 4.82 0 35 43 984.5 0 11.9 22.0 28.7 75.3 59.0 199.1
08/05 16:00 1.2 84 4.43 -1.2 43 46 984.9 0 11.1 21.5 27.4 71.6 54.2 182.4
08/05 15:50 1.8 80 4.39 -1.3 44 52 985.1 0 11.0 21.3 27.0 70.6 53.3 179.2
08/05 15:40 2 76 4.23 -1.8 39 46 985.2 0 10.6 21.0 26.3 68.8 51.2 171.6
08/05 15:30 1.9 71 3.92 -2.8 44 50 985.5 0 10.0 20.6 25.2 65.8 47.3 158.2
08/05 15:20 2.2 65 3.67 -3.7 50 56 985.6 0 9.4 20.1 24.2 63.0 44.1 146.7
08/05 15:10 2.4 63 3.6 -3.9 43 52 985.5 0 9.3 20.0 23.9 62.2 43.1 143.4
08/05 15:00 2.2 69 3.89 -2.9 35 39 985.8 0 9.9 20.5 25.0 65.2 46.8 156.3
08/05 14:50 1.9 68 3.76 -3.4 41 44 986.2 0 9.6 20.4 24.6 64.2 45.4 151.3
08/05 14:40 1.7 69 3.76 -3.4 35 46 986.3 0 9.6 20.4 24.7 64.4 45.5 151.7
08/05 14:30 1.3 77 4.08 -2.3 32 37 986.6 0 10.3 21.0 26.0 68.0 49.8 166.7
08/05 14:20 1.4 70 3.74 -3.5 44 52 986.8 0 9.6 20.5 24.7 64.5 45.4 151.5
08/05 14:10 1.6 72 3.9 -2.9 37 43 987 0 9.9 20.7 25.3 65.9 47.3 158.1
08/05 14:00 1.9 70 3.87 -3 35 39 987.3 0 9.9 20.6 25.1 65.4 46.8 156.3
08/05 13:50 2.1 64 3.58 -4 41 46 987.2 0 9.2 20.1 23.9 62.3 43.1 143.3
08/05 13:40 2.2 65 3.67 -3.7 35 43 987.2 0 9.4 20.2 24.2 63.2 44.1 147.0
08/05 13:30 2.4 55 3.14 -5.7 41 48 987.3 0 8.3 19.4 22.2 57.8 37.6 124.0
08/05 13:20 2.4 53 3.03 -6.2 35 41 987.2 0 8.0 19.2 21.8 56.8 36.3 119.4
08/05 13:10 2.3 57 3.24 -5.3 35 43 987.3 0 8.5 19.5 22.6 58.9 38.9 128.4
08/05 13:00 2.3 67 3.8 -3.2 33 39 987.4 0 9.7 20.4 24.7 64.4 45.7 152.4
08/05 12:50 2.1 70 3.92 -2.8 39 44 987.4 0 10.0 20.6 25.2 65.8 47.3 158.1
08/05 12:40 2.2 63 3.55 -4.1 32 43 987.5 0 9.2 20.0 23.8 62.0 42.7 141.8
08/05 12:30 2.3 63 3.58 -4 35 46 987.4 0 9.2 20.0 23.9 62.2 43.0 142.9
08/05 12:20 1.9 67 3.7 -3.6 43 54 987.9 0 9.5 20.3 24.5 63.8 44.7 148.9
08/05 12:10 1.9 68 3.76 -3.4 44 57 987.7 0 9.6 20.4 24.7 64.3 45.4 151.5
08/05 12:00 2.3 59 3.35 -4.9 35 50 987.5 0 8.7 19.7 23.0 60.0 40.2 133.1
08/05 11:50 2.3 60 3.41 -4.6 39 46 987.5 0 8.9 19.8 23.3 60.5 40.9 135.7
08/05 11:40 2.3 66 3.75 -3.4 39 50 987.3 0 9.6 20.3 24.5 63.9 45.1 150.3
08/05 11:30 2 70 3.89 -2.9 39 48 987.6 0 9.9 20.6 25.1 65.6 47.0 157.0
08/05 11:20 2.2 66 3.72 -3.5 44 50 987.5 0 9.5 20.3 24.4 63.7 44.8 149.2
08/05 11:10 2 69 3.84 -3.1 48 61 987.4 0 9.8 20.5 24.9 65.0 46.4 154.8
08/05 11:00 2.1 74 4.14 -2 37 50 987.5 0 10.4 20.9 26.0 68.0 50.1 167.8

Last Refresh: 09-May-2026 03:10:38

Bureau of Meteorology